sensor_id;sensor_type;location;lat;lon;timestamp;pressure;altitude;pressure_sealevel;temperature;humidity
64078;BME280;51039;49.696;10.808;2023-05-03T00:01:25;99276.63;;;7.23;95.65
64078;BME280;51039;49.696;10.808;2023-05-03T00:03:51;99271.34;;;7.15;95.65
64078;BME280;51039;49.696;10.808;2023-05-03T00:06:17;99273.59;;;7.10;95.63
64078;BME280;51039;49.696;10.808;2023-05-03T00:08:42;99266.53;;;7.10;95.81
64078;BME280;51039;49.696;10.808;2023-05-03T00:11:08;99268.50;;;7.08;96.36
64078;BME280;51039;49.696;10.808;2023-05-03T00:13:33;99271.91;;;7.00;95.88
64078;BME280;51039;49.696;10.808;2023-05-03T00:15:59;99270.94;;;7.01;96.28
64078;BME280;51039;49.696;10.808;2023-05-03T00:18:25;99272.75;;;7.01;96.29
64078;BME280;51039;49.696;10.808;2023-05-03T00:20:50;99272.91;;;6.99;96.33
64078;BME280;51039;49.696;10.808;2023-05-03T00:23:17;99275.03;;;6.96;96.10
64078;BME280;51039;49.696;10.808;2023-05-03T00:25:42;99271.09;;;7.00;98.42
64078;BME280;51039;49.696;10.808;2023-05-03T00:28:08;99267.16;;;7.04;97.71
64078;BME280;51039;49.696;10.808;2023-05-03T00:30:33;99270.63;;;7.04;97.34
64078;BME280;51039;49.696;10.808;2023-05-03T00:32:59;99273.09;;;7.06;97.74
64078;BME280;51039;49.696;10.808;2023-05-03T00:35:25;99277.19;;;7.00;97.40
64078;BME280;51039;49.696;10.808;2023-05-03T00:37:51;99276.50;;;6.98;97.57
64078;BME280;51039;49.696;10.808;2023-05-03T00:40:16;99277.81;;;6.94;98.24
64078;BME280;51039;49.696;10.808;2023-05-03T00:42:42;99283.22;;;6.93;98.19
64078;BME280;51039;49.696;10.808;2023-05-03T00:45:09;99274.50;;;6.92;98.90
64078;BME280;51039;49.696;10.808;2023-05-03T00:47:35;99265.94;;;6.90;98.46
64078;BME280;51039;49.696;10.808;2023-05-03T00:50:01;99268.72;;;6.88;99.10
64078;BME280;51039;49.696;10.808;2023-05-03T00:52:26;99264.09;;;6.82;98.80
64078;BME280;51039;49.696;10.808;2023-05-03T00:54:51;99263.56;;;6.79;99.00
64078;BME280;51039;49.696;10.808;2023-05-03T00:57:17;99258.63;;;6.76;99.06
64078;BME280;51039;49.696;10.808;2023-05-03T00:59:43;99255.63;;;6.71;99.18
64078;BME280;51039;49.696;10.808;2023-05-03T01:02:09;99261.38;;;6.66;99.86
64078;BME280;51039;49.696;10.808;2023-05-03T01:04:34;99255.75;;;6.61;100.00
64078;BME280;51039;49.696;10.808;2023-05-03T01:09:47;99267.09;;;6.61;100.00
64078;BME280;51039;49.696;10.808;2023-05-03T01:12:23;99265.47;;;6.60;100.00
64078;BME280;51039;49.696;10.808;2023-05-03T01:17:27;99264.41;;;6.53;100.00
64078;BME280;51039;49.696;10.808;2023-05-03T01:20:05;99262.06;;;6.50;100.00
64078;BME280;51039;49.696;10.808;2023-05-03T01:25:52;99257.16;;;6.47;100.00
64078;BME280;51039;49.696;10.808;2023-05-03T01:28:18;99261.72;;;6.45;100.00
64078;BME280;51039;49.696;10.808;2023-05-03T01:30:43;99245.41;;;6.41;100.00
64078;BME280;51039;49.696;10.808;2023-05-03T01:33:12;99248.72;;;6.43;100.00
64078;BME280;51039;49.696;10.808;2023-05-03T01:38:13;99252.56;;;6.31;100.00
64078;BME280;51039;49.696;10.808;2023-05-03T01:40:46;99246.50;;;6.31;100.00
64078;BME280;51039;49.696;10.808;2023-05-03T01:43:14;99244.75;;;6.21;100.00
64078;BME280;51039;49.696;10.808;2023-05-03T01:45:41;99250.34;;;6.18;100.00
64078;BME280;51039;49.696;10.808;2023-05-03T01:48:11;99252.59;;;6.13;100.00
64078;BME280;51039;49.696;10.808;2023-05-03T01:50:39;99251.94;;;6.11;100.00
64078;BME280;51039;49.696;10.808;2023-05-03T01:53:04;99253.06;;;6.08;100.00
64078;BME280;51039;49.696;10.808;2023-05-03T01:55:30;99249.78;;;6.06;100.00
64078;BME280;51039;49.696;10.808;2023-05-03T01:57:55;99249.78;;;6.06;100.00
64078;BME280;51039;49.696;10.808;2023-05-03T02:00:20;99245.75;;;6.02;100.00
64078;BME280;51039;49.696;10.808;2023-05-03T02:02:46;99244.59;;;5.97;100.00
64078;BME280;51039;49.696;10.808;2023-05-03T02:05:11;99237.66;;;5.96;100.00
64078;BME280;51039;49.696;10.808;2023-05-03T02:07:37;99238.91;;;5.92;100.00
64078;BME280;51039;49.696;10.808;2023-05-03T02:10:03;99241.41;;;5.93;100.00
64078;BME280;51039;49.696;10.808;2023-05-03T02:12:31;99248.44;;;5.93;100.00
64078;BME280;51039;49.696;10.808;2023-05-03T02:14:56;99246.13;;;5.89;100.00
64078;BME280;51039;49.696;10.808;2023-05-03T02:17:22;99261.09;;;5.89;100.00
64078;BME280;51039;49.696;10.808;2023-05-03T02:19:50;99262.50;;;5.83;100.00
64078;BME280;51039;49.696;10.808;2023-05-03T02:22:19;99264.28;;;5.83;100.00
64078;BME280;51039;49.696;10.808;2023-05-03T02:24:44;99261.84;;;5.81;100.00
64078;BME280;51039;49.696;10.808;2023-05-03T02:27:10;99259.22;;;5.81;100.00
64078;BME280;51039;49.696;10.808;2023-05-03T02:29:36;99246.06;;;5.81;100.00
64078;BME280;51039;49.696;10.808;2023-05-03T02:32:02;99248.16;;;5.78;100.00
64078;BME280;51039;49.696;10.808;2023-05-03T02:34:31;99243.06;;;5.76;100.00
64078;BME280;51039;49.696;10.808;2023-05-03T02:36:57;99243.34;;;5.73;100.00
64078;BME280;51039;49.696;10.808;2023-05-03T02:39:22;99246.56;;;5.67;100.00
64078;BME280;51039;49.696;10.808;2023-05-03T02:41:47;99242.44;;;5.64;100.00
64078;BME280;51039;49.696;10.808;2023-05-03T02:44:13;99244.41;;;5.62;100.00
64078;BME280;51039;49.696;10.808;2023-05-03T02:46:38;99247.72;;;5.64;100.00
64078;BME280;51039;49.696;10.808;2023-05-03T02:49:05;99247.72;;;5.64;100.00
64078;BME280;51039;49.696;10.808;2023-05-03T02:51:31;99246.84;;;5.64;100.00
64078;BME280;51039;49.696;10.808;2023-05-03T02:53:57;99240.56;;;5.57;100.00
64078;BME280;51039;49.696;10.808;2023-05-03T02:56:22;99244.47;;;5.53;100.00
64078;BME280;51039;49.696;10.808;2023-05-03T02:58:50;99246.72;;;5.47;100.00
64078;BME280;51039;49.696;10.808;2023-05-03T03:01:16;99244.91;;;5.48;100.00
64078;BME280;51039;49.696;10.808;2023-05-03T03:03:41;99250.28;;;5.46;100.00
64078;BME280;51039;49.696;10.808;2023-05-03T03:06:06;99245.22;;;5.45;100.00
64078;BME280;51039;49.696;10.808;2023-05-03T03:08:32;99243.69;;;5.42;100.00
64078;BME280;51039;49.696;10.808;2023-05-03T03:10:57;99253.38;;;5.42;100.00
64078;BME280;51039;49.696;10.808;2023-05-03T03:13:22;99248.13;;;5.42;100.00
64078;BME280;51039;49.696;10.808;2023-05-03T03:15:48;99243.81;;;5.41;100.00
64078;BME280;51039;49.696;10.808;2023-05-03T03:18:13;99252.84;;;5.38;100.00
64078;BME280;51039;49.696;10.808;2023-05-03T03:20:38;99249.53;;;5.36;100.00
64078;BME280;51039;49.696;10.808;2023-05-03T03:23:04;99255.47;;;5.38;100.00
64078;BME280;51039;49.696;10.808;2023-05-03T03:25:29;99255.91;;;5.34;100.00
64078;BME280;51039;49.696;10.808;2023-05-03T03:27:54;99250.94;;;5.30;100.00
64078;BME280;51039;49.696;10.808;2023-05-03T03:30:20;99247.91;;;5.35;100.00
64078;BME280;51039;49.696;10.808;2023-05-03T03:32:45;99256.88;;;5.32;100.00
64078;BME280;51039;49.696;10.808;2023-05-03T03:35:10;99255.25;;;5.31;100.00
64078;BME280;51039;49.696;10.808;2023-05-03T03:37:36;99253.56;;;5.30;100.00
64078;BME280;51039;49.696;10.808;2023-05-03T03:40:02;99260.16;;;5.17;100.00
64078;BME280;51039;49.696;10.808;2023-05-03T03:42:28;99265.13;;;5.20;100.00
64078;BME280;51039;49.696;10.808;2023-05-03T03:44:53;99267.84;;;5.28;100.00
64078;BME280;51039;49.696;10.808;2023-05-03T03:47:18;99274.91;;;5.27;100.00
64078;BME280;51039;49.696;10.808;2023-05-03T03:49:43;99272.94;;;5.29;100.00
64078;BME280;51039;49.696;10.808;2023-05-03T03:52:09;99271.97;;;5.30;100.00
64078;BME280;51039;49.696;10.808;2023-05-03T03:54:34;99268.22;;;5.33;100.00
64078;BME280;51039;49.696;10.808;2023-05-03T03:57:00;99270.00;;;5.32;100.00
64078;BME280;51039;49.696;10.808;2023-05-03T03:59:28;99273.31;;;5.35;100.00
64078;BME280;51039;49.696;10.808;2023-05-03T04:01:54;99274.16;;;5.35;100.00
64078;BME280;51039;49.696;10.808;2023-05-03T04:04:19;99277.16;;;5.40;100.00
64078;BME280;51039;49.696;10.808;2023-05-03T04:06:45;99277.56;;;5.45;100.00
64078;BME280;51039;49.696;10.808;2023-05-03T04:09:10;99283.22;;;5.50;100.00
64078;BME280;51039;49.696;10.808;2023-05-03T04:11:36;99283.97;;;5.61;100.00
64078;BME280;51039;49.696;10.808;2023-05-03T04:14:01;99288.09;;;5.63;100.00
64078;BME280;51039;49.696;10.808;2023-05-03T04:16:27;99304.69;;;5.64;100.00
64078;BME280;51039;49.696;10.808;2023-05-03T04:18:52;99302.50;;;5.59;100.00
64078;BME280;51039;49.696;10.808;2023-05-03T04:21:18;99305.41;;;5.56;100.00
64078;BME280;51039;49.696;10.808;2023-05-03T04:23:43;99310.19;;;5.70;100.00
64078;BME280;51039;49.696;10.808;2023-05-03T04:26:09;99319.16;;;5.78;100.00
64078;BME280;51039;49.696;10.808;2023-05-03T04:28:35;99314.09;;;5.84;100.00
64078;BME280;51039;49.696;10.808;2023-05-03T04:31:00;99323.03;;;6.01;100.00
64078;BME280;51039;49.696;10.808;2023-05-03T04:33:26;99324.91;;;6.09;100.00
64078;BME280;51039;49.696;10.808;2023-05-03T04:35:53;99328.94;;;6.21;100.00
64078;BME280;51039;49.696;10.808;2023-05-03T04:38:19;99322.34;;;6.35;100.00
64078;BME280;51039;49.696;10.808;2023-05-03T04:40:44;99324.75;;;6.28;100.00
64078;BME280;51039;49.696;10.808;2023-05-03T04:43:10;99336.16;;;6.19;100.00
64078;BME280;51039;49.696;10.808;2023-05-03T04:45:36;99335.56;;;6.25;99.50
64078;BME280;51039;49.696;10.808;2023-05-03T04:48:02;99329.72;;;6.32;99.14
64078;BME280;51039;49.696;10.808;2023-05-03T04:50:29;99327.28;;;6.38;99.18
64078;BME280;51039;49.696;10.808;2023-05-03T04:52:55;99341.78;;;6.42;98.76
64078;BME280;51039;49.696;10.808;2023-05-03T04:55:20;99348.50;;;6.37;98.94
64078;BME280;51039;49.696;10.808;2023-05-03T04:57:45;99352.25;;;6.34;98.96
64078;BME280;51039;49.696;10.808;2023-05-03T05:00:11;99349.72;;;6.24;98.79
64078;BME280;51039;49.696;10.808;2023-05-03T05:02:36;99354.44;;;6.21;98.22
64078;BME280;51039;49.696;10.808;2023-05-03T05:05:02;99347.97;;;6.33;99.12
64078;BME280;51039;49.696;10.808;2023-05-03T05:07:28;99347.16;;;6.33;98.53
64078;BME280;51039;49.696;10.808;2023-05-03T05:09:53;99356.09;;;6.40;99.02
64078;BME280;51039;49.696;10.808;2023-05-03T05:12:19;99348.50;;;6.55;98.37
64078;BME280;51039;49.696;10.808;2023-05-03T05:14:44;99349.31;;;6.55;98.69
64078;BME280;51039;49.696;10.808;2023-05-03T05:17:10;99349.91;;;6.67;97.95
64078;BME280;51039;49.696;10.808;2023-05-03T05:19:35;99349.91;;;6.67;96.64
64078;BME280;51039;49.696;10.808;2023-05-03T05:22:00;99351.38;;;6.69;96.53
64078;BME280;51039;49.696;10.808;2023-05-03T05:24:26;99352.53;;;6.67;96.10
64078;BME280;51039;49.696;10.808;2023-05-03T05:26:51;99353.53;;;6.48;95.92
64078;BME280;51039;49.696;10.808;2023-05-03T05:29:16;99358.56;;;6.59;96.57
64078;BME280;51039;49.696;10.808;2023-05-03T05:31:42;99359.09;;;6.63;96.49
64078;BME280;51039;49.696;10.808;2023-05-03T05:34:07;99359.97;;;6.72;96.21
64078;BME280;51039;49.696;10.808;2023-05-03T05:36:32;99358.91;;;6.82;94.94
64078;BME280;51039;49.696;10.808;2023-05-03T05:38:57;99368.19;;;6.68;95.25
64078;BME280;51039;49.696;10.808;2023-05-03T05:41:23;99367.63;;;6.83;95.17
64078;BME280;51039;49.696;10.808;2023-05-03T05:43:48;99369.81;;;6.87;94.55
64078;BME280;51039;49.696;10.808;2023-05-03T05:46:14;99367.03;;;6.89;93.36
64078;BME280;51039;49.696;10.808;2023-05-03T05:48:40;99368.94;;;6.87;93.15
64078;BME280;51039;49.696;10.808;2023-05-03T05:51:06;99375.22;;;6.86;92.61
64078;BME280;51039;49.696;10.808;2023-05-03T05:53:31;99367.69;;;6.91;92.58
64078;BME280;51039;49.696;10.808;2023-05-03T05:55:57;99376.31;;;7.01;92.06
64078;BME280;51039;49.696;10.808;2023-05-03T05:58:22;99375.69;;;7.07;91.01
64078;BME280;51039;49.696;10.808;2023-05-03T06:00:48;99368.19;;;7.21;90.34
64078;BME280;51039;49.696;10.808;2023-05-03T06:03:14;99372.38;;;7.32;90.06
64078;BME280;51039;49.696;10.808;2023-05-03T06:05:39;99366.47;;;7.38;87.55
64078;BME280;51039;49.696;10.808;2023-05-03T06:08:05;99376.69;;;7.41;88.81
64078;BME280;51039;49.696;10.808;2023-05-03T06:10:30;99375.28;;;7.55;88.44
64078;BME280;51039;49.696;10.808;2023-05-03T06:12:56;99371.19;;;7.60;88.12
64078;BME280;51039;49.696;10.808;2023-05-03T06:15:21;99374.47;;;7.97;86.77
64078;BME280;51039;49.696;10.808;2023-05-03T06:17:47;99379.09;;;8.03;85.10
64078;BME280;51039;49.696;10.808;2023-05-03T06:20:12;99374.84;;;8.18;84.26
64078;BME280;51039;49.696;10.808;2023-05-03T06:22:37;99376.81;;;8.33;83.99
64078;BME280;51039;49.696;10.808;2023-05-03T06:25:03;99374.84;;;8.26;83.35
64078;BME280;51039;49.696;10.808;2023-05-03T06:27:28;99381.09;;;8.17;84.13
64078;BME280;51039;49.696;10.808;2023-05-03T06:29:54;99378.59;;;8.16;84.00
64078;BME280;51039;49.696;10.808;2023-05-03T06:32:19;99380.41;;;8.07;84.30
64078;BME280;51039;49.696;10.808;2023-05-03T06:34:46;99383.94;;;8.49;82.58
64078;BME280;51039;49.696;10.808;2023-05-03T06:37:12;99378.53;;;8.75;81.10
64078;BME280;51039;49.696;10.808;2023-05-03T06:39:38;99372.72;;;9.12;79.44
64078;BME280;51039;49.696;10.808;2023-05-03T06:42:03;99378.09;;;9.43;78.83
64078;BME280;51039;49.696;10.808;2023-05-03T06:44:28;99372.09;;;9.50;75.11
64078;BME280;51039;49.696;10.808;2023-05-03T06:46:53;99383.19;;;9.85;73.76
64078;BME280;51039;49.696;10.808;2023-05-03T06:49:19;99370.06;;;10.31;70.91
64078;BME280;51039;49.696;10.808;2023-05-03T06:51:45;99370.94;;;10.46;71.20
64078;BME280;51039;49.696;10.808;2023-05-03T06:54:11;99374.53;;;10.53;69.02
64078;BME280;51039;49.696;10.808;2023-05-03T06:56:36;99374.34;;;11.46;66.81
64078;BME280;51039;49.696;10.808;2023-05-03T06:59:02;99368.47;;;11.35;65.10
64078;BME280;51039;49.696;10.808;2023-05-03T07:01:28;99365.59;;;11.82;63.70
64078;BME280;51039;49.696;10.808;2023-05-03T07:03:56;99364.94;;;12.09;61.30
64078;BME280;51039;49.696;10.808;2023-05-03T07:06:21;99360.00;;;13.62;57.13
64078;BME280;51039;49.696;10.808;2023-05-03T07:08:51;99351.69;;;12.81;59.71
64078;BME280;51039;49.696;10.808;2023-05-03T07:11:17;99358.13;;;14.11;55.82
64078;BME280;51039;49.696;10.808;2023-05-03T07:13:46;99357.84;;;12.60;61.64
64078;BME280;51039;49.696;10.808;2023-05-03T07:16:11;99357.88;;;13.44;57.99
64078;BME280;51039;49.696;10.808;2023-05-03T07:18:37;99358.78;;;14.33;56.08
64078;BME280;51039;49.696;10.808;2023-05-03T07:21:02;99348.72;;;17.51;47.03
64078;BME280;51039;49.696;10.808;2023-05-03T07:23:30;99358.81;;;15.20;52.10
64078;BME280;51039;49.696;10.808;2023-05-03T07:25:55;99349.59;;;14.56;52.62
64078;BME280;51039;49.696;10.808;2023-05-03T07:28:21;99344.94;;;13.89;55.25
64078;BME280;51039;49.696;10.808;2023-05-03T07:30:47;99347.38;;;13.78;55.26
64078;BME280;51039;49.696;10.808;2023-05-03T07:33:13;99351.16;;;14.03;54.71
64078;BME280;51039;49.696;10.808;2023-05-03T07:35:38;99344.38;;;15.99;50.68
64078;BME280;51039;49.696;10.808;2023-05-03T07:38:03;99347.44;;;16.09;48.11
64078;BME280;51039;49.696;10.808;2023-05-03T07:40:28;99334.84;;;15.71;49.97
64078;BME280;51039;49.696;10.808;2023-05-03T07:42:57;99334.91;;;16.67;46.85
64078;BME280;51039;49.696;10.808;2023-05-03T07:45:25;99340.09;;;15.92;49.48
64078;BME280;51039;49.696;10.808;2023-05-03T07:47:50;99336.91;;;16.72;47.07
64078;BME280;51039;49.696;10.808;2023-05-03T07:50:16;99332.41;;;18.20;44.62
64078;BME280;51039;49.696;10.808;2023-05-03T07:52:41;99325.00;;;16.10;46.98
64078;BME280;51039;49.696;10.808;2023-05-03T07:55:07;99333.84;;;15.66;49.78
64078;BME280;51039;49.696;10.808;2023-05-03T07:57:33;99324.16;;;15.71;49.09
64078;BME280;51039;49.696;10.808;2023-05-03T07:59:58;99333.56;;;15.29;49.05
64078;BME280;51039;49.696;10.808;2023-05-03T08:02:23;99331.75;;;15.09;50.68
64078;BME280;51039;49.696;10.808;2023-05-03T08:04:49;99326.28;;;15.56;48.61
64078;BME280;51039;49.696;10.808;2023-05-03T08:07:14;99328.31;;;18.05;43.52
64078;BME280;51039;49.696;10.808;2023-05-03T08:09:41;99321.78;;;18.13;42.38
64078;BME280;51039;49.696;10.808;2023-05-03T08:12:06;99322.56;;;16.91;45.42
64078;BME280;51039;49.696;10.808;2023-05-03T08:14:32;99316.50;;;17.02;45.57
64078;BME280;51039;49.696;10.808;2023-05-03T08:16:58;99313.81;;;16.77;46.01
64078;BME280;51039;49.696;10.808;2023-05-03T08:19:23;99325.06;;;17.85;44.68
64078;BME280;51039;49.696;10.808;2023-05-03T08:21:49;99320.78;;;19.68;42.28
64078;BME280;51039;49.696;10.808;2023-05-03T08:24:18;99315.97;;;18.82;41.94
64078;BME280;51039;49.696;10.808;2023-05-03T08:26:43;99313.28;;;19.81;40.09
64078;BME280;51039;49.696;10.808;2023-05-03T08:29:10;99319.25;;;20.29;38.06
64078;BME280;51039;49.696;10.808;2023-05-03T08:31:35;99322.91;;;20.23;39.10
64078;BME280;51039;49.696;10.808;2023-05-03T08:34:00;99313.16;;;18.11;42.33
64078;BME280;51039;49.696;10.808;2023-05-03T08:36:27;99316.75;;;18.59;40.86
64078;BME280;51039;49.696;10.808;2023-05-03T08:38:53;99317.63;;;18.95;40.02
64078;BME280;51039;49.696;10.808;2023-05-03T08:41:26;99319.84;;;18.86;40.47
64078;BME280;51039;49.696;10.808;2023-05-03T08:43:53;99315.34;;;18.56;40.80
64078;BME280;51039;49.696;10.808;2023-05-03T08:46:20;99317.44;;;19.49;39.38
64078;BME280;51039;49.696;10.808;2023-05-03T08:48:46;99307.94;;;20.44;37.92
64078;BME280;51039;49.696;10.808;2023-05-03T08:51:13;99309.53;;;20.11;37.83
64078;BME280;51039;49.696;10.808;2023-05-03T08:53:40;99314.66;;;19.84;38.32
64078;BME280;51039;49.696;10.808;2023-05-03T08:56:09;99313.22;;;19.93;38.29
64078;BME280;51039;49.696;10.808;2023-05-03T08:58:36;99317.97;;;19.62;38.76
64078;BME280;51039;49.696;10.808;2023-05-03T09:01:03;99311.03;;;19.90;37.81
64078;BME280;51039;49.696;10.808;2023-05-03T09:03:32;99317.09;;;18.74;40.65
64078;BME280;51039;49.696;10.808;2023-05-03T09:05:58;99320.38;;;19.88;39.35
64078;BME280;51039;49.696;10.808;2023-05-03T09:08:27;99318.88;;;20.09;37.77
64078;BME280;51039;49.696;10.808;2023-05-03T09:10:54;99312.88;;;20.18;37.36
64078;BME280;51039;49.696;10.808;2023-05-03T09:13:19;99314.91;;;20.11;37.21
64078;BME280;51039;49.696;10.808;2023-05-03T09:15:54;99315.81;;;21.41;35.55
64078;BME280;51039;49.696;10.808;2023-05-03T09:18:21;99313.81;;;20.92;36.39
64078;BME280;51039;49.696;10.808;2023-05-03T09:20:48;99315.53;;;20.64;36.70
64078;BME280;51039;49.696;10.808;2023-05-03T09:25:51;99318.13;;;19.96;38.25
64078;BME280;51039;49.696;10.808;2023-05-03T09:28:17;99302.66;;;20.04;38.72
64078;BME280;51039;49.696;10.808;2023-05-03T09:30:44;99313.41;;;19.34;39.25
64078;BME280;51039;49.696;10.808;2023-05-03T09:33:10;99312.78;;;20.30;38.45
64078;BME280;51039;49.696;10.808;2023-05-03T09:35:41;99307.63;;;20.74;37.25
64078;BME280;51039;49.696;10.808;2023-05-03T09:38:27;99301.41;;;20.40;38.05
64078;BME280;51039;49.696;10.808;2023-05-03T09:40:56;99297.88;;;21.46;36.56
64078;BME280;51039;49.696;10.808;2023-05-03T09:43:22;99291.63;;;20.51;37.44
64078;BME280;51039;49.696;10.808;2023-05-03T09:45:47;99293.44;;;21.18;37.43
64078;BME280;51039;49.696;10.808;2023-05-03T09:48:12;99287.44;;;22.64;35.18
64078;BME280;51039;49.696;10.808;2023-05-03T09:50:38;99287.50;;;23.17;33.60
64078;BME280;51039;49.696;10.808;2023-05-03T09:53:05;99293.44;;;22.11;34.50
64078;BME280;51039;49.696;10.808;2023-05-03T09:55:31;99292.13;;;21.65;36.20
64078;BME280;51039;49.696;10.808;2023-05-03T09:58:06;99283.47;;;21.41;36.50
64078;BME280;51039;49.696;10.808;2023-05-03T10:00:40;99291.25;;;21.59;36.53
64078;BME280;51039;49.696;10.808;2023-05-03T10:03:11;99282.97;;;22.20;35.97
64078;BME280;51039;49.696;10.808;2023-05-03T10:05:44;99281.31;;;20.98;37.21
64078;BME280;51039;49.696;10.808;2023-05-03T10:08:11;99274.94;;;20.03;38.13
64078;BME280;51039;49.696;10.808;2023-05-03T10:10:45;99270.81;;;20.29;37.30
64078;BME280;51039;49.696;10.808;2023-05-03T10:13:15;99268.06;;;19.78;38.10
64078;BME280;51039;49.696;10.808;2023-05-03T10:15:41;99267.63;;;19.98;37.83
64078;BME280;51039;49.696;10.808;2023-05-03T10:18:09;99264.63;;;20.63;37.73
64078;BME280;51039;49.696;10.808;2023-05-03T10:20:40;99258.00;;;20.87;37.17
64078;BME280;51039;49.696;10.808;2023-05-03T10:23:14;99264.22;;;21.76;38.10
64078;BME280;51039;49.696;10.808;2023-05-03T10:25:44;99261.06;;;21.84;35.30
64078;BME280;51039;49.696;10.808;2023-05-03T10:28:38;99251.78;;;22.29;36.55
64078;BME280;51039;49.696;10.808;2023-05-03T10:31:04;99263.22;;;21.16;36.22
64078;BME280;51039;49.696;10.808;2023-05-03T10:33:32;99260.47;;;20.72;37.69
64078;BME280;51039;49.696;10.808;2023-05-03T10:36:05;99259.34;;;20.68;36.68
64078;BME280;51039;49.696;10.808;2023-05-03T10:38:31;99262.91;;;20.39;37.06
64078;BME280;51039;49.696;10.808;2023-05-03T10:40:57;99260.94;;;20.69;36.43
64078;BME280;51039;49.696;10.808;2023-05-03T10:46:05;99248.97;;;21.15;35.79
64078;BME280;51039;49.696;10.808;2023-05-03T10:48:33;99250.31;;;20.96;35.53
64078;BME280;51039;49.696;10.808;2023-05-03T10:54:00;99255.72;;;20.28;37.53
64078;BME280;51039;49.696;10.808;2023-05-03T10:56:25;99256.72;;;19.48;38.57
64078;BME280;51039;49.696;10.808;2023-05-03T10:58:51;99245.94;;;20.05;39.08
64078;BME280;51039;49.696;10.808;2023-05-03T11:01:20;99242.81;;;19.79;38.30
64078;BME280;51039;49.696;10.808;2023-05-03T11:03:51;99243.72;;;20.87;36.67
64078;BME280;51039;49.696;10.808;2023-05-03T11:08:56;99239.50;;;18.61;39.35
64078;BME280;51039;49.696;10.808;2023-05-03T11:11:22;99246.84;;;19.25;38.72
64078;BME280;51039;49.696;10.808;2023-05-03T11:13:49;99236.19;;;19.30;38.33
64078;BME280;51039;49.696;10.808;2023-05-03T11:16:15;99231.75;;;19.64;39.01
64078;BME280;51039;49.696;10.808;2023-05-03T11:18:41;99237.59;;;19.73;39.23
64078;BME280;51039;49.696;10.808;2023-05-03T11:21:06;99236.38;;;18.64;39.64
64078;BME280;51039;49.696;10.808;2023-05-03T11:23:31;99236.44;;;19.16;43.31
64078;BME280;51039;49.696;10.808;2023-05-03T11:25:57;99230.66;;;19.48;39.06
64078;BME280;51039;49.696;10.808;2023-05-03T11:28:23;99222.88;;;18.82;38.22
64078;BME280;51039;49.696;10.808;2023-05-03T11:30:48;99226.47;;;18.41;40.24
64078;BME280;51039;49.696;10.808;2023-05-03T11:33:14;99224.69;;;19.46;37.95
64078;BME280;51039;49.696;10.808;2023-05-03T11:35:40;99221.16;;;19.46;38.10
64078;BME280;51039;49.696;10.808;2023-05-03T11:38:06;99228.81;;;18.73;37.57
64078;BME280;51039;49.696;10.808;2023-05-03T11:40:33;99229.38;;;18.98;38.69
64078;BME280;51039;49.696;10.808;2023-05-03T11:42:58;99221.09;;;18.29;40.82
64078;BME280;51039;49.696;10.808;2023-05-03T11:45:25;99221.41;;;18.09;39.10
64078;BME280;51039;49.696;10.808;2023-05-03T11:47:53;99227.13;;;19.19;41.81
64078;BME280;51039;49.696;10.808;2023-05-03T11:50:25;99223.50;;;19.13;40.79
64078;BME280;51039;49.696;10.808;2023-05-03T11:53:07;99213.50;;;18.97;39.93
64078;BME280;51039;49.696;10.808;2023-05-03T11:55:32;99212.59;;;19.32;39.48
64078;BME280;51039;49.696;10.808;2023-05-03T11:57:57;99216.00;;;19.27;37.08
64078;BME280;51039;49.696;10.808;2023-05-03T12:00:25;99213.34;;;17.97;39.25
64078;BME280;51039;49.696;10.808;2023-05-03T12:02:50;99213.72;;;18.13;38.19
64078;BME280;51039;49.696;10.808;2023-05-03T12:05:15;99207.63;;;19.12;38.99
64078;BME280;51039;49.696;10.808;2023-05-03T12:07:41;99205.47;;;19.26;40.97
64078;BME280;51039;49.696;10.808;2023-05-03T12:10:16;99194.00;;;18.78;37.17
64078;BME280;51039;49.696;10.808;2023-05-03T12:12:55;99202.38;;;19.05;37.54
64078;BME280;51039;49.696;10.808;2023-05-03T12:18:01;99195.78;;;18.49;38.06
64078;BME280;51039;49.696;10.808;2023-05-03T12:20:29;99197.66;;;18.36;38.00
64078;BME280;51039;49.696;10.808;2023-05-03T12:22:55;99194.72;;;18.26;38.33
64078;BME280;51039;49.696;10.808;2023-05-03T12:25:24;99196.69;;;18.07;39.24
64078;BME280;51039;49.696;10.808;2023-05-03T12:27:51;99198.19;;;18.03;38.69
64078;BME280;51039;49.696;10.808;2023-05-03T12:30:17;99188.06;;;18.05;38.62
64078;BME280;51039;49.696;10.808;2023-05-03T12:32:42;99189.13;;;18.28;39.21
64078;BME280;51039;49.696;10.808;2023-05-03T12:35:07;99187.03;;;18.06;38.10
64078;BME280;51039;49.696;10.808;2023-05-03T12:37:33;99187.16;;;18.11;37.58
64078;BME280;51039;49.696;10.808;2023-05-03T12:39:59;99182.63;;;17.81;39.52
64078;BME280;51039;49.696;10.808;2023-05-03T12:42:25;99178.28;;;18.70;40.63
64078;BME280;51039;49.696;10.808;2023-05-03T12:44:51;99173.50;;;18.83;37.54
64078;BME280;51039;49.696;10.808;2023-05-03T12:47:16;99180.16;;;18.57;37.23
64078;BME280;51039;49.696;10.808;2023-05-03T12:49:42;99180.00;;;17.93;37.99
64078;BME280;51039;49.696;10.808;2023-05-03T12:52:07;99165.59;;;17.76;38.26
64078;BME280;51039;49.696;10.808;2023-05-03T12:54:32;99168.94;;;17.59;41.34
64078;BME280;51039;49.696;10.808;2023-05-03T12:56:58;99167.06;;;17.90;39.46
64078;BME280;51039;49.696;10.808;2023-05-03T12:59:27;99162.91;;;18.30;38.22
64078;BME280;51039;49.696;10.808;2023-05-03T13:01:53;99152.16;;;18.41;37.72
64078;BME280;51039;49.696;10.808;2023-05-03T13:04:18;99145.59;;;18.61;38.34
64078;BME280;51039;49.696;10.808;2023-05-03T13:06:44;99149.69;;;18.63;38.44
64078;BME280;51039;49.696;10.808;2023-05-03T13:09:10;99151.81;;;18.38;38.02
64078;BME280;51039;49.696;10.808;2023-05-03T13:11:35;99150.56;;;18.29;39.49
64078;BME280;51039;49.696;10.808;2023-05-03T13:14:01;99148.19;;;18.09;38.52